Latest Weather Observations for Brisbane Airport

IDQ60901

Issued at 1:25 pm EST Saturday 29 November 2014 (issued every 10 minutes, with the page automatically refreshed every 10 minutes)

About weather observations | Map of Brisbane area stations | Latest observations for Brisbane area | Other Formats
Station Details ID: 040842 Name: BRISBANE AERO Lat: -27.39 Lon: 153.13 Height: 4.51 m
Data from the previous 72 hours. | See also: Recent months at Brisbane Airport
Date/Time
EST
Tmp

°C
App
Tmp
°C
Dew
Point
°C
Rel
Hum
%
Delta-T

°C
Wind Press
QNH
hPa
Press
MSL
hPa
Rain
since
9 am
mm
Dir
 
Spd
km/h
Gust
km/h
Spd
kts
Gust
kts
29/01:00pm 25.2 22.8 12.5 45 7.3 ESE 17 26 9 14 1017.7 - 0.0
29/12:30pm 25.5 22.7 13.1 46 7.2 ESE 20 33 11 18 1017.9 - 0.0
29/12:00pm 25.2 23.5 13.6 48 6.8 ESE 15 26 8 14 1018.2 1018.2 0.0
29/11:30am 25.1 22.8 13.0 47 7.0 SE 17 28 9 15 1018.5 - 0.0
29/11:00am 24.9 22.4 13.6 49 6.6 ESE 19 32 10 17 1018.8 - 0.0
29/10:30am 25.2 22.6 12.1 44 7.5 ESE 17 30 9 16 1019.1 - 0.0
29/10:00am 24.7 22.2 12.3 46 7.1 SE 17 28 9 15 1019.3 - 0.0
29/09:30am 24.5 21.8 12.9 48 6.7 SE 19 32 10 17 1019.5 - 0.0
29/09:00am 24.6 22.4 13.2 49 6.6 ESE 17 28 9 15 1019.5 1019.5 0.8
29/08:30am 24.2 21.6 13.1 50 6.4 ESE 19 30 10 16 1019.3 - 0.8
29/08:00am 23.4 22.0 13.4 53 5.8 SE 13 24 7 13 1019.3 - 0.8
29/07:30am 23.2 22.7 14.9 59 4.9 SE 11 15 6 8 1019.2 - 0.8
29/07:00am 23.2 22.8 16.3 65 4.2 SE 13 17 7 9 1019.0 - 0.8
29/06:30am 22.0 22.5 17.5 75 2.8 SSE 11 17 6 9 1018.6 - 0.8
29/06:00am 21.2 21.9 17.1 77 2.5 SSE 9 17 5 9 1018.2 1018.2 0.8
29/05:30am 19.8 20.6 17.3 85 1.5 S 9 13 5 7 1018.0 - 0.8
29/05:00am 19.7 20.2 17.4 86 1.4 S 11 15 6 8 1017.8 - 0.8
29/04:30am 19.5 20.0 17.5 88 1.2 S 11 15 6 8 1017.5 - 0.8
29/04:00am 19.8 20.8 17.7 88 1.3 S 9 15 5 8 1017.3 - 0.8
29/03:30am 20.0 21.0 17.7 86 1.4 S 9 15 5 8 1017.3 - 0.8
29/03:00am 19.9 21.0 18.1 89 1.1 SSW 9 13 5 7 1017.2 1017.2 0.8
29/02:30am 20.1 21.6 18.8 92 0.8 S 9 11 5 6 1017.3 - 0.8
29/02:00am 20.4 21.6 19.0 92 0.9 S 11 15 6 8 1017.5 - 0.8
29/01:30am 21.6 22.4 18.2 81 2.1 E 11 17 6 9 1017.4 - 0.8
29/01:00am 21.2 22.0 17.3 78 2.4 ESE 9 20 5 11 1017.8 - 0.8
29/12:30am 20.4 21.7 18.5 89 1.2 SSE 9 15 5 8 1018.3 - 0.6
29/12:00am 19.9 20.2 17.8 88 1.3 ESE 13 24 7 13 1019.2 1019.2 0.6
 
Date/Time
EST
Tmp

°C
App
Tmp
°C
Dew
Point
°C
Rel
Hum
%
Delta-T

°C
Wind Press
QNH
hPa
Press
MSL
hPa
Rain
since
9 am
mm
Dir
 
Spd
km/h
Gust
km/h
Spd
kts
Gust
kts
28/11:30pm 21.2 20.9 17.3 78 2.4 ESE 15 30 8 16 1019.0 - 0.4
28/11:00pm 22.8 22.5 16.4 67 3.9 E 13 20 7 11 1019.0 - 0.4
28/10:30pm 22.7 22.4 16.4 67 3.8 E 13 17 7 9 1019.2 - 0.4
28/10:00pm 22.7 22.3 16.1 66 4.0 E 13 22 7 12 1019.4 - 0.4
28/09:30pm 22.8 21.6 16.0 65 4.1 E 17 26 9 14 1019.5 - 0.4
28/09:00pm 22.8 22.0 16.0 65 4.1 E 15 24 8 13 1019.4 1019.4 0.4
28/08:30pm 23.1 22.3 16.0 64 4.3 E 15 30 8 16 1019.3 - 0.4
28/08:00pm 23.0 22.0 15.5 62 4.5 E 15 28 8 15 1019.1 - 0.4
28/07:30pm 23.0 21.1 15.3 62 4.6 E 19 30 10 16 1018.8 - 0.4
28/07:00pm 23.1 21.0 14.8 59 4.9 E 19 33 10 18 1018.6 - 0.4
28/06:30pm 23.3 20.6 14.5 57 5.2 ESE 22 37 12 20 1018.6 - 0.4
28/06:00pm 23.7 21.6 15.2 59 5.1 ESE 20 35 11 19 1018.3 1018.3 0.4
28/05:30pm 23.7 21.2 15.2 59 5.1 ESE 22 33 12 18 1018.1 - 0.4
28/05:00pm 24.1 21.3 15.4 58 5.2 ESE 24 35 13 19 1017.8 - 0.4
28/04:30pm 24.3 21.9 16.3 61 4.9 ESE 24 39 13 21 1017.5 - 0.4
28/04:00pm 24.3 22.4 16.8 63 4.6 ESE 22 35 12 19 1017.5 - 0.4
28/03:30pm 24.5 22.4 16.3 60 5.0 SE 22 37 12 20 1017.6 - 0.4
28/03:00pm 24.1 22.1 17.3 65 4.2 ESE 24 35 13 19 1017.8 1017.8 0.4
28/02:30pm 23.9 21.3 17.8 68 3.8 ESE 28 46 15 25 1017.7 - 0.4
28/02:00pm 25.8 23.3 18.0 62 4.9 ESE 28 46 15 25 1017.9 - 0.4
28/01:30pm 26.3 24.4 17.7 59 5.4 ESE 24 39 13 21 1018.1 - 0.4
28/01:00pm 25.7 23.7 17.4 60 5.2 ESE 24 33 13 18 1018.1 - 0.4
28/12:30pm 26.0 24.2 17.0 57 5.6 ESE 22 - 12 - 1018.0 - 0.4
28/12:00pm 26.1 24.6 17.8 60 5.2 ESE 22 33 12 18 1018.0 1018.5 0.4
28/11:30am 26.0 24.3 18.0 61 5.0 ESE 24 - 13 - 1018.0 - 0.4
28/11:00am 26.4 26.0 19.4 65 4.5 ESE 20 39 11 21 1018.7 - 0.4
28/10:30am 25.3 24.6 18.7 67 4.2 ESE 20 30 11 16 1018.6 - 0.4
28/10:00am 26.1 25.3 18.4 62 4.9 ESE 20 32 11 17 1018.6 - 0.4
28/09:30am 25.8 26.2 19.8 69 3.9 ESE 17 32 9 17 1018.6 - 0.4
28/09:15am 24.3 24.6 19.6 75 3.0 ESE 17 28 9 15 1018.6 - 0.4
28/09:00am 22.4 22.9 19.2 82 2.0 SE 15 26 8 14 1018.7 1018.7 8.0
28/08:57am 24.2 24.6 19.0 72 3.3 SE 15 22 8 12 1018.7 - 7.4
28/08:30am 24.0 24.2 18.6 72 3.4 SE 15 22 8 12 1018.8 - 7.4
28/08:00am 24.0 24.2 17.7 68 3.9 SE 13 24 7 13 1018.6 - 7.4
28/07:30am 23.4 23.9 18.3 73 3.2 SE 13 22 7 12 1018.7 - 7.4
28/07:00am 22.7 23.4 18.9 79 2.4 SSE 13 20 7 11 1018.4 - 7.4
28/06:30am 21.5 22.0 19.3 87 1.4 SSE 15 22 8 12 1018.1 - 7.4
28/06:00am 21.3 21.9 19.4 89 1.2 SSE 15 30 8 16 1017.8 1017.8 7.4
28/05:30am 21.1 22.1 19.4 90 1.1 SSE 13 22 7 12 1017.6 - 7.4
28/05:17am 20.8 20.5 19.1 90 1.1 SSE 19 28 10 15 1017.5 - 7.4
28/05:00am 20.6 20.7 19.2 92 0.9 S 17 30 9 16 1017.4 - 7.4
28/04:43am 20.6 20.4 19.3 92 0.8 S 19 35 10 19 1017.2 - 7.4
28/04:37am 21.1 21.1 18.9 87 1.4 S 17 30 9 16 1017.2 - 7.2
28/04:30am 21.2 21.1 18.8 86 1.5 S 17 28 9 15 1017.1 - 7.2
28/04:00am 21.0 20.8 18.6 86 1.5 S 17 30 9 16 1016.6 - 7.2
28/03:30am 21.2 21.3 18.3 83 1.8 S 15 28 8 15 1016.5 - 7.2
28/03:00am 21.3 21.6 18.7 85 1.6 S 15 26 8 14 1016.5 1016.5 7.2
28/02:30am 21.3 22.1 19.1 87 1.4 SSE 13 24 7 13 1016.4 - 7.2
28/02:00am 21.4 22.1 18.9 86 1.6 S 13 22 7 12 1016.2 - 7.2
28/01:30am 21.7 22.0 18.8 83 1.8 S 15 28 8 15 1016.5 - 7.2
28/01:00am 21.9 22.9 19.4 86 1.6 SSE 13 24 7 13 1016.6 - 7.2
28/12:30am 22.2 22.8 18.7 80 2.2 S 13 20 7 11 1016.8 - 7.2
28/12:00am 22.7 23.7 19.4 81 2.1 SE 13 22 7 12 1017.0 1017.0 7.2
 
Date/Time
EST
Tmp

°C
App
Tmp
°C
Dew
Point
°C
Rel
Hum
%
Delta-T

°C
Wind Press
QNH
hPa
Press
MSL
hPa
Rain
since
9 am
mm
Dir
 
Spd
km/h
Gust
km/h
Spd
kts
Gust
kts
27/11:30pm 22.6 24.8 19.5 82 2.0 SSE 7 15 4 8 1017.0 - 7.2
27/11:00pm 22.9 24.0 19.6 81 2.1 SE 13 26 7 14 1017.2 - 7.2
27/10:30pm 23.2 23.5 19.6 80 2.3 SE 17 26 9 14 1017.2 - 7.2
27/10:00pm 23.7 25.4 19.3 76 2.8 SE 9 15 5 8 1017.5 - 7.2
27/09:30pm 23.5 25.0 20.6 84 1.9 SE 13 19 7 10 1017.4 - 7.2
27/09:00pm 24.0 25.4 20.3 80 2.4 SE 13 19 7 10 1017.1 1017.1 7.2
27/08:30pm 23.6 25.2 20.8 84 1.8 S 13 20 7 11 1017.0 - 7.2
27/08:00pm 23.6 25.6 20.8 84 1.8 SSE 11 15 6 8 1016.4 - 7.2
27/07:30pm 23.7 25.8 20.9 84 1.8 SSE 11 19 6 10 1016.4 - 7.2
27/07:00pm 24.2 26.4 21.8 86 1.6 SE 13 19 7 10 1016.5 - 7.2
27/06:30pm 24.3 25.5 21.4 84 1.9 ESE 17 26 9 14 1015.8 - 7.2
27/06:00pm 24.3 25.6 21.7 85 1.7 SE 17 28 9 15 1015.8 1015.8 7.2
27/05:41pm 23.7 26.1 21.6 88 1.4 SSE 11 19 6 10 1015.6 - 7.2
27/05:30pm 22.5 24.8 21.4 93 0.7 S 11 15 6 8 1015.6 - 7.0
27/05:20pm 22.2 23.0 21.4 95 0.5 SW 19 26 10 14 1015.8 - 6.8
27/05:00pm 25.2 25.7 20.8 76 2.9 E 19 33 10 18 1014.8 - 2.4
27/04:51pm 26.3 24.8 18.6 62 4.9 ENE 24 37 13 20 1013.8 - 0.0
27/04:40pm 27.0 25.5 18.5 59 5.4 NE 24 32 13 17 1012.9 - 0.0
27/04:30pm 27.5 27.0 20.8 67 4.4 NNE 24 30 13 16 1012.8 - 0.0
27/04:00pm 27.9 26.4 20.3 63 5.0 NNE 28 33 15 18 1012.8 - 0.0
27/03:30pm 27.6 25.6 19.9 63 5.0 N 30 35 16 19 1012.5 - 0.0
27/03:00pm 27.9 26.9 19.6 60 5.4 NNE 24 32 13 17 1012.3 1012.3 0.0
27/02:30pm 28.2 27.3 19.9 60 5.4 NNE 24 30 13 16 1012.8 - 0.0
27/02:00pm 28.7 27.5 19.3 56 6.1 NNE 24 30 13 16 1013.4 - 0.0
27/01:30pm 28.8 27.6 18.5 53 6.6 NNE 22 30 12 16 1013.5 - 0.0
27/01:00pm 28.6 26.1 18.1 53 6.7 NNE 28 32 15 17 1013.8 - 0.0
27/12:30pm 29.0 26.9 18.9 54 6.5 NNE 28 32 15 17 1014.1 - 0.0
27/12:00pm 28.5 26.9 19.2 57 6.0 NNE 26 32 14 17 1014.5 1014.5 0.0
27/11:30am 29.1 27.8 19.1 54 6.5 NNE 24 30 13 16 1014.8 - 0.0
27/11:00am 28.2 27.7 19.1 57 5.9 NNE 20 28 11 15 1015.2 - 0.0
27/10:30am 28.2 27.5 18.7 56 6.1 NNE 20 26 11 14 1015.6 - 0.0
27/10:00am 27.6 27.7 19.2 60 5.4 NNE 17 26 9 14 1015.8 - 0.0
27/09:30am 27.7 28.0 19.5 61 5.3 NNE 17 20 9 11 1016.1 - 0.0
27/09:00am 26.8 27.4 18.5 60 5.3 N 13 20 7 11 1016.4 1016.4 0.0
27/08:30am 26.3 26.9 18.6 62 4.9 N 13 19 7 10 1016.6 - 0.0
27/08:00am 26.4 27.2 19.1 64 4.7 NNW 13 17 7 9 1016.7 - 0.0
27/07:30am 25.5 26.6 18.9 67 4.2 NNW 11 17 6 9 1016.7 - 0.0
27/07:00am 25.2 26.9 19.4 70 3.7 NW 9 13 5 7 1016.4 - 0.0
27/06:30am 24.0 26.3 19.8 77 2.7 WNW 7 11 4 6 1016.2 - 0.0
27/06:00am 23.9 25.9 20.0 79 2.5 NW 9 19 5 10 1016.0 1016.0 0.0
27/05:30am 23.3 25.4 20.2 83 2.0 NW 9 11 5 6 1015.7 - 0.0
27/05:00am 23.1 24.9 20.3 84 1.8 WNW 11 11 6 6 1015.7 - 0.0
27/04:30am 23.0 26.5 20.4 85 1.7 NW 2 11 1 6 1015.4 - 0.0
27/04:00am 23.0 27.1 20.7 87 1.5 CALM 0 0 0 0 1015.1 - 0.0
27/03:30am 23.0 26.6 20.5 86 1.6 NNE 2 7 1 4 1015.0 - 0.0
27/03:00am 23.3 24.8 20.5 84 1.8 WNW 13 19 7 10 1014.8 1014.8 0.0
27/02:30am 23.4 25.2 20.3 83 2.0 WSW 11 13 6 7 1015.2 - 0.0
27/02:00am 23.5 24.9 20.3 82 2.1 N 13 15 7 8 1014.9 - 0.0
27/01:30am 23.5 24.7 19.8 80 2.4 N 13 15 7 8 1015.3 - 0.0
27/01:00am 23.7 25.0 20.1 80 2.3 N 13 17 7 9 1015.3 - 0.0
27/12:30am 23.9 25.1 19.9 78 2.6 N 13 17 7 9 1015.4 - 0.0
27/12:00am 24.2 25.2 20.3 79 2.5 N 15 19 8 10 1015.9 1015.9 0.0
 
Date/Time
EST
Tmp

°C
App
Tmp
°C
Dew
Point
°C
Rel
Hum
%
Delta-T

°C
Wind Press
QNH
hPa
Press
MSL
hPa
Rain
since
9 am
mm
Dir
 
Spd
km/h
Gust
km/h
Spd
kts
Gust
kts
26/11:30pm 24.0 24.2 20.1 79 2.5 N 19 24 10 13 1016.0 - 0.0
26/11:00pm 23.5 24.9 20.4 83 2.0 N 13 17 7 9 1016.3 - 0.0
26/10:30pm 23.5 24.5 20.3 82 2.1 NNE 15 19 8 10 1016.7 - 0.0
26/10:00pm 23.2 24.9 20.1 83 2.0 NNE 11 13 6 7 1016.9 - 0.0
26/09:30pm 23.5 25.8 19.9 80 2.3 NNE 7 9 4 5 1017.3 - 0.0
26/09:00pm 24.1 26.7 20.1 78 2.6 N 6 11 3 6 1017.6 1017.6 0.0
26/08:30pm 24.2 25.9 20.2 78 2.6 N 11 15 6 8 1017.5 - 0.0
26/08:00pm 24.4 26.6 19.7 75 3.0 NNE 7 9 4 5 1017.2 - 0.0
26/07:30pm 24.8 26.5 19.3 71 3.5 NE 9 13 5 7 1017.0 - 0.0
26/07:00pm 24.8 26.3 19.0 70 3.7 NE 9 13 5 7 1016.9 - 0.0
26/06:30pm 25.2 26.4 18.2 65 4.4 NE 9 13 5 7 1016.7 - 0.0
26/06:00pm 25.2 25.9 18.8 67 4.1 NE 13 17 7 9 1016.3 1016.3 0.0
26/05:30pm 25.6 25.5 18.7 65 4.4 NE 17 22 9 12 1015.9 - 0.0
26/05:00pm 25.5 26.3 19.8 70 3.7 NNE 15 19 8 10 1015.3 - 0.0
26/04:30pm 26.1 26.5 19.8 68 4.1 NNE 17 24 9 13 1015.0 - 0.0
26/04:00pm 26.3 25.7 19.8 67 4.2 N 22 28 12 15 1015.0 - 0.0
26/03:30pm 26.5 26.0 20.0 67 4.2 N 22 30 12 16 1014.8 - 0.0
26/03:00pm 27.4 27.4 21.6 70 3.9 N 24 30 13 16 1014.8 1014.8 0.0
26/02:30pm 27.7 26.9 20.0 63 5.0 NNE 24 32 13 17 1015.0 - 0.0
26/02:00pm 26.7 25.4 19.9 66 4.4 N 26 32 14 17 1015.0 - 0.0
26/01:30pm 27.0 25.7 19.8 64 4.7 N 26 32 14 17 1015.1 - 0.0

Latest Capital City Observations: Canberra | Sydney | Melbourne | Brisbane | Adelaide | Perth | Hobart | Darwin

Other Formats:

Comma delimited format used in spreadsheet applications
http://www.bom.gov.au/fwo/IDQ60901/IDQ60901.94578.axf

JavaScript Object Notation format (JSON) in row-major order
http://www.bom.gov.au/fwo/IDQ60901/IDQ60901.94578.json